Time;durP1;ratioP1;P1;durP2;ratioP2;P2;SDS_P1;SDS_P2;PMS_P1;PMS_P2;Temp;Humidity;BMP_temperature;BMP_pressure;BME280_temperature;BME280_humidity;BME280_pressure;Samples;Min_cycle;Max_cycle;Signal;HPM_P1;HPM_P2
2022/01/13 00:00:21;;;;;;;6.60;1.30;;;24.40;77.20;;;;;;5080429;28;20187;-82
2022/01/13 00:02:49;;;;;;;5.70;1.30;;;24.60;76.90;;;;;;5088356;28;20206;-81
2022/01/13 00:05:18;;;;;;;2.20;0.93;;;24.70;75.70;;;;;;5086093;28;20184;-81
2022/01/13 00:07:45;;;;;;;4.07;1.30;;;24.70;75.30;;;;;;5073980;28;20514;-80
2022/01/13 00:10:16;;;;;;;3.10;1.10;;;24.80;75.20;;;;;;5072649;28;20592;-82
2022/01/13 00:12:44;;;;;;;3.20;1.00;;;24.80;75.00;;;;;;5073737;28;20187;-82
2022/01/13 00:25:34;;;;;;;4.53;1.33;;;25.10;75.80;;;;;;5073260;28;20244;-80
2022/01/13 00:28:07;;;;;;;5.37;1.17;;;25.10;75.30;;;;;;5071639;28;20224;-78
2022/01/13 00:30:35;;;;;;;3.60;1.23;;;25.30;75.20;;;;;;5067729;28;20207;-79
2022/01/13 00:33:02;;;;;;;2.40;1.10;;;25.50;74.20;;;;;;5061924;28;20601;-79
2022/01/13 00:35:29;;;;;;;2.60;0.90;;;25.60;73.80;;;;;;5086570;28;20226;-81
2022/01/13 00:37:57;;;;;;;4.20;1.17;;;25.70;74.10;;;;;;5074661;28;20231;-83
2022/01/13 00:40:24;;;;;;;3.67;1.30;;;25.80;74.20;;;;;;5069942;28;20179;-77
2022/01/13 00:42:52;;;;;;;5.00;1.00;;;25.70;73.60;;;;;;5072495;28;20199;-80
2022/01/13 00:45:19;;;;;;;6.80;1.70;;;25.60;74.50;;;;;;5072329;28;20234;-79
2022/01/13 00:47:46;;;;;;;5.57;1.80;;;25.60;74.40;;;;;;5070941;28;20221;-78
2022/01/13 00:50:14;;;;;;;6.00;1.60;;;25.50;74.70;;;;;;5073035;28;20596;-84
2022/01/13 00:52:41;;;;;;;6.80;1.40;;;25.40;75.00;;;;;;5072548;28;20180;-77
2022/01/13 00:55:14;;;;;;;9.63;2.30;;;25.30;75.50;;;;;;5071726;28;20182;-77
2022/01/13 00:57:42;;;;;;;5.87;1.70;;;25.10;76.20;;;;;;5071329;28;20656;-78
2022/01/13 01:00:10;;;;;;;11.60;1.87;;;25.00;76.90;;;;;;5072514;28;20533;-77
2022/01/13 01:02:37;;;;;;;5.13;1.63;;;24.80;76.60;;;;;;5070428;28;20175;-78
2022/01/13 01:05:05;;;;;;;6.00;1.30;;;24.60;77.40;;;;;;5070997;28;20634;-77
2022/01/13 01:07:35;;;;;;;6.83;2.43;;;24.50;77.60;;;;;;5071254;28;20349;-78
2022/01/13 01:10:05;;;;;;;5.13;1.50;;;24.50;78.50;;;;;;5071869;28;20601;-78
2022/01/13 01:12:35;;;;;;;6.73;1.60;;;24.40;79.50;;;;;;5069089;28;20179;-78
2022/01/13 01:15:02;;;;;;;8.90;1.43;;;24.30;78.90;;;;;;5069282;28;20175;-78
2022/01/13 01:17:30;;;;;;;6.70;1.30;;;24.40;78.30;;;;;;5069074;28;20650;-76
2022/01/13 01:20:00;;;;;;;7.97;1.83;;;24.30;78.90;;;;;;5071637;28;20235;-78
2022/01/13 01:27:46;;;;;;;9.20;2.17;;;24.30;79.60;;;;;;5074354;28;20179;-81
2022/01/13 01:32:53;;;;;;;4.63;1.40;;;23.80;80.30;;;;;;5088671;28;20226;-78
2022/01/13 01:35:25;;;;;;;17.73;3.00;;;23.60;82.00;;;;;;5072530;28;20198;-78
2022/01/13 01:37:53;;;;;;;4.87;1.33;;;23.50;83.40;;;;;;5072203;28;20227;-82
2022/01/13 01:40:21;;;;;;;9.30;1.87;;;23.30;84.50;;;;;;5072053;28;20179;-78
2022/01/13 01:42:49;;;;;;;7.97;2.13;;;23.20;85.50;;;;;;5072355;28;20193;-77
2022/01/13 01:45:19;;;;;;;5.30;1.90;;;22.80;86.60;;;;;;5072538;28;20664;-80
2022/01/13 01:47:51;;;;;;;5.50;1.90;;;22.50;88.00;;;;;;5072091;28;20235;-82
2022/01/13 01:50:23;;;;;;;4.40;1.43;;;22.40;89.70;;;;;;5071196;28;20179;-80
2022/01/13 01:52:53;;;;;;;3.60;1.33;;;22.30;89.40;;;;;;5071592;28;20194;-76
2022/01/13 01:55:22;;;;;;;7.53;2.10;;;22.20;90.30;;;;;;5070735;28;20229;-75
2022/01/13 01:57:51;;;;;;;7.23;1.80;;;22.00;89.90;;;;;;5071114;28;20641;-78
2022/01/13 02:00:22;;;;;;;9.03;2.73;;;22.00;90.50;;;;;;5072473;28;20581;-77
2022/01/13 02:02:49;;;;;;;18.03;4.20;;;22.00;90.90;;;;;;5071843;28;21426;-75
2022/01/13 02:05:16;;;;;;;9.70;2.67;;;22.00;91.20;;;;;;5071569;28;20191;-74
2022/01/13 02:07:44;;;;;;;4.03;1.53;;;21.80;90.60;;;;;;5073813;28;20186;-72
2022/01/13 02:10:12;;;;;;;8.63;2.97;;;21.70;91.50;;;;;;5075267;28;20670;-73
2022/01/13 02:12:45;;;;;;;12.20;3.00;;;21.80;91.90;;;;;;5075663;28;20195;-73
2022/01/13 02:15:28;;;;;;;4.20;1.83;;;21.80;92.40;;;;;;5072680;28;20219;-74
2022/01/13 02:17:56;;;;;;;8.90;2.43;;;21.90;91.40;;;;;;5072908;28;20190;-74
2022/01/13 02:20:31;;;;;;;7.27;2.00;;;21.90;92.10;;;;;;5075324;28;20187;-74
2022/01/13 02:22:58;;;;;;;6.03;2.50;;;22.00;91.50;;;;;;5054325;28;20191;-74
2022/01/13 02:25:25;;;;;;;12.80;4.57;;;22.00;91.40;;;;;;5075341;28;20542;-74
2022/01/13 02:27:53;;;;;;;10.80;3.70;;;21.90;90.80;;;;;;5071660;28;20236;-76
2022/01/13 02:30:20;;;;;;;5.87;2.83;;;21.70;91.50;;;;;;5072324;28;20183;-76
2022/01/13 02:32:47;;;;;;;6.43;2.63;;;21.70;91.30;;;;;;5075695;28;20195;-74
2022/01/13 02:35:16;;;;;;;6.03;2.63;;;21.80;91.40;;;;;;5072316;28;20237;-74
2022/01/13 02:37:43;;;;;;;3.87;1.83;;;21.80;91.80;;;;;;5075997;28;20223;-75
2022/01/13 02:40:11;;;;;;;5.47;2.80;;;21.60;90.20;;;;;;5074934;28;20190;-75
2022/01/13 02:42:38;;;;;;;3.53;1.87;;;21.60;91.00;;;;;;5070486;28;20202;-74
2022/01/13 02:45:15;;;;;;;4.40;1.50;;;21.80;90.70;;;;;;5074750;28;20179;-74
2022/01/13 02:50:12;;;;;;;5.30;2.30;;;22.00;89.70;;;;;;5072555;28;20665;-73
2022/01/13 02:52:40;;;;;;;6.60;2.20;;;22.20;90.20;;;;;;5074257;28;20183;-72
2022/01/13 02:55:08;;;;;;;5.30;2.90;;;22.30;90.40;;;;;;5075242;28;20182;-73
2022/01/13 02:57:37;;;;;;;5.27;2.40;;;22.40;90.00;;;;;;5075419;28;20186;-73
2022/01/13 03:00:08;;;;;;;3.80;1.63;;;22.50;89.20;;;;;;5076563;28;20175;-74
2022/01/13 03:02:35;;;;;;;3.77;1.80;;;22.50;88.90;;;;;;5075622;28;20189;-75
2022/01/13 03:05:02;;;;;;;4.50;1.40;;;22.70;89.80;;;;;;5081860;28;20182;-75
2022/01/13 03:07:33;;;;;;;4.30;1.73;;;22.70;89.60;;;;;;5076403;28;20182;-75
2022/01/13 03:10:02;;;;;;;3.37;1.37;;;22.80;89.10;;;;;;5074570;28;20186;-76
2022/01/13 03:12:31;;;;;;;9.37;6.03;;;22.90;86.40;;;;;;5074639;28;20179;-76
2022/01/13 03:14:59;;;;;;;12.40;5.17;;;23.00;87.30;;;;;;5072696;28;20187;-76
2022/01/13 03:17:27;;;;;;;10.70;5.53;;;23.30;87.00;;;;;;5073544;28;20684;-77
2022/01/13 03:19:54;;;;;;;8.03;3.60;;;23.40;86.90;;;;;;5069277;28;20202;-78
2022/01/13 03:22:21;;;;;;;6.90;2.20;;;23.50;85.50;;;;;;5074291;28;20262;-78
2022/01/13 03:24:49;;;;;;;4.77;1.83;;;23.70;87.40;;;;;;5072897;28;20278;-77
2022/01/13 03:27:23;;;;;;;8.70;2.03;;;23.70;86.30;;;;;;5074373;28;20183;-80
2022/01/13 03:29:50;;;;;;;6.73;1.57;;;23.70;87.20;;;;;;5069951;28;20623;-86
2022/01/13 03:32:18;;;;;;;5.43;1.40;;;23.90;87.20;;;;;;5072632;28;20167;-78
2022/01/13 03:34:46;;;;;;;5.53;1.80;;;23.80;87.30;;;;;;5072383;28;20195;-80
2022/01/13 03:37:14;;;;;;;8.87;1.97;;;24.00;86.90;;;;;;5073988;28;20215;-79
2022/01/13 03:39:41;;;;;;;3.40;1.40;;;24.20;85.30;;;;;;5074023;28;20316;-84
2022/01/13 03:42:09;;;;;;;6.20;1.57;;;24.10;84.70;;;;;;5073958;28;20648;-78
2022/01/13 03:44:36;;;;;;;6.70;1.87;;;23.80;86.00;;;;;;5072773;28;20780;-80
2022/01/13 03:47:04;;;;;;;5.37;1.47;;;24.00;87.40;;;;;;5074125;28;20167;-78
2022/01/13 03:49:33;;;;;;;6.67;1.90;;;24.10;87.30;;;;;;5072500;28;20192;-84
2022/01/13 03:52:23;;;;;;;6.07;1.93;;;24.00;86.50;;;;;;5071117;28;20175;-83
2022/01/13 03:55:24;;;;;;;5.47;1.73;;;23.80;87.40;;;;;;5075267;28;20243;-84
2022/01/13 03:58:18;;;;;;;6.17;1.80;;;23.40;88.50;;;;;;5073614;28;20649;-83
2022/01/13 04:01:24;;;;;;;5.87;1.60;;;23.30;88.30;;;;;;5073621;28;20242;-81
2022/01/13 04:03:52;;;;;;;8.33;1.97;;;23.20;88.50;;;;;;5073355;28;20179;-83
2022/01/13 04:06:22;;;;;;;10.13;2.20;;;22.80;89.10;;;;;;5072681;28;20175;-84
2022/01/13 04:08:53;;;;;;;13.70;2.77;;;22.60;90.10;;;;;;5070579;28;20372;-81
2022/01/13 04:11:26;;;;;;;14.53;3.00;;;22.60;90.70;;;;;;5070844;28;20506;-82
2022/01/13 04:14:00;;;;;;;13.50;2.73;;;22.50;90.90;;;;;;5069931;28;20547;-87
2022/01/13 04:16:31;;;;;;;9.70;2.40;;;22.50;91.00;;;;;;5068485;28;20878;-83
2022/01/13 04:19:04;;;;;;;9.30;2.20;;;22.50;90.90;;;;;;5071912;28;21113;-82
2022/01/13 04:21:37;;;;;;;9.23;2.03;;;22.60;90.80;;;;;;5099010;28;20270;-81
2022/01/13 04:24:11;;;;;;;7.57;1.83;;;22.50;90.70;;;;;;5072010;28;20250;-81
2022/01/13 04:26:42;;;;;;;8.87;2.00;;;22.50;90.70;;;;;;5072307;28;20190;-78
2022/01/13 04:31:38;;;;;;;10.10;2.23;;;22.80;91.10;;;;;;5073220;28;20179;-79
2022/01/13 04:34:06;;;;;;;10.77;2.03;;;22.80;90.60;;;;;;5075247;28;20262;-80
2022/01/13 04:36:34;;;;;;;7.07;1.90;;;22.80;90.40;;;;;;5076152;28;20218;-80
2022/01/13 04:39:01;;;;;;;9.23;1.77;;;22.90;90.40;;;;;;5079907;28;20235;-80
2022/01/13 04:41:34;;;;;;;12.07;2.17;;;22.90;90.00;;;;;;5075954;28;20183;-80
2022/01/13 04:44:05;;;;;;;8.23;1.93;;;23.00;89.90;;;;;;5069318;28;20186;-82
2022/01/13 04:46:36;;;;;;;6.33;1.57;;;23.00;89.10;;;;;;5070596;28;20255;-80
2022/01/13 04:49:05;;;;;;;8.40;1.67;;;22.90;89.90;;;;;;5071706;28;20195;-84
2022/01/13 04:51:32;;;;;;;7.70;1.60;;;22.90;89.70;;;;;;5071841;28;20195;-81
2022/01/13 04:54:00;;;;;;;9.93;2.20;;;23.00;89.50;;;;;;5070568;28;20653;-81
2022/01/13 04:57:06;;;;;;;9.40;1.90;;;23.10;89.40;;;;;;5069440;28;20275;-78
2022/01/13 04:59:17;;;;;;;10.67;1.73;;;23.20;90.30;;;;;;5069713;28;20179;-80
2022/01/13 05:01:45;;;;;;;12.17;2.00;;;23.30;89.50;;;;;;5067081;28;20179;-80
2022/01/13 05:04:12;;;;;;;6.80;1.33;;;23.30;88.90;;;;;;5069918;28;20207;-81
2022/01/13 05:06:39;;;;;;;10.30;1.97;;;23.50;88.60;;;;;;5067333;28;20553;-79
2022/01/13 05:09:07;;;;;;;9.83;1.70;;;23.50;88.60;;;;;;5070051;28;20186;-80
2022/01/13 05:11:34;;;;;;;7.30;1.63;;;23.70;88.30;;;;;;5069111;28;20192;-81
2022/01/13 05:14:02;;;;;;;6.80;1.83;;;23.70;87.10;;;;;;5071381;28;20190;-82
2022/01/13 05:16:57;;;;;;;7.20;1.60;;;23.80;87.00;;;;;;5067322;28;20247;-82
2022/01/13 05:19:24;;;;;;;8.57;1.40;;;23.90;87.00;;;;;;5064623;28;20195;-83
2022/01/13 05:24:29;;;;;;;7.00;1.80;;;24.30;85.90;;;;;;5070491;28;20266;-82
2022/01/13 05:27:06;;;;;;;7.00;3.90;;;24.60;84.50;;;;;;5070502;28;20276;-80
2022/01/13 05:29:36;;;;;;;12.10;3.73;;;24.80;82.60;;;;;;5069973;28;20217;-82
2022/01/13 05:32:04;;;;;;;9.77;4.53;;;25.90;79.70;;;;;;5070634;28;20179;-84
2022/01/13 05:34:54;;;;;;;6.57;1.43;;;26.80;77.30;;;;;;5068162;28;20183;-82
2022/01/13 05:37:28;;;;;;;8.90;1.93;;;26.70;76.20;;;;;;5071190;28;20758;-85
2022/01/13 05:39:59;;;;;;;5.20;1.20;;;26.60;77.30;;;;;;5067533;28;20190;-87
2022/01/13 05:42:27;;;;;;;6.40;1.30;;;26.30;76.00;;;;;;5072631;28;20180;-84
2022/01/13 05:44:59;;;;;;;4.67;1.30;;;26.00;77.00;;;;;;5067452;28;20197;-87
2022/01/13 05:47:35;;;;;;;5.63;1.17;;;25.70;76.80;;;;;;5069616;28;20213;-89
2022/01/13 05:50:03;;;;;;;3.77;1.60;;;25.70;76.20;;;;;;5067498;28;20195;-83
2022/01/13 05:52:37;;;;;;;5.97;1.70;;;25.80;75.70;;;;;;5074254;28;20187;-85
2022/01/13 05:55:11;;;;;;;3.43;1.17;;;25.60;75.10;;;;;;5073632;28;20653;-85
2022/01/13 05:57:39;;;;;;;6.17;1.47;;;25.90;75.10;;;;;;5073777;28;20194;-79
2022/01/13 06:00:10;;;;;;;4.93;2.40;;;26.70;72.20;;;;;;5069640;28;20171;-79
2022/01/13 06:02:38;;;;;;;3.83;1.00;;;27.80;67.50;;;;;;5072280;28;20176;-79
2022/01/13 06:05:06;;;;;;;4.57;1.00;;;27.90;67.20;;;;;;5073459;28;20218;-78
2022/01/13 06:07:33;;;;;;;5.83;1.27;;;27.40;69.20;;;;;;5072333;28;20183;-80
2022/01/13 06:10:01;;;;;;;5.90;1.17;;;27.30;69.60;;;;;;5076008;28;20187;-79
2022/01/13 06:12:33;;;;;;;5.03;1.00;;;27.00;71.20;;;;;;5090771;28;20190;-78
2022/01/13 06:15:07;;;;;;;4.03;1.13;;;26.70;71.20;;;;;;5082813;28;20187;-77
2022/01/13 06:17:36;;;;;;;2.97;1.00;;;26.70;72.40;;;;;;5071916;28;20341;-80
2022/01/13 06:20:06;;;;;;;3.60;0.90;;;27.00;70.30;;;;;;5074587;28;20179;-78
2022/01/13 06:22:34;;;;;;;2.43;0.63;;;26.60;70.30;;;;;;5071118;28;20187;-80
2022/01/13 06:25:03;;;;;;;3.53;0.97;;;26.20;70.90;;;;;;5073298;28;20266;-79
2022/01/13 06:27:30;;;;;;;3.37;1.03;;;26.30;71.50;;;;;;5073359;28;20727;-79
2022/01/13 06:29:58;;;;;;;3.47;1.00;;;26.50;71.00;;;;;;5072808;28;21079;-79
2022/01/13 06:32:25;;;;;;;4.17;1.20;;;26.30;72.80;;;;;;5074018;28;20171;-79
2022/01/13 06:34:53;;;;;;;6.07;1.33;;;26.20;72.70;;;;;;5067607;28;20262;-78
2022/01/13 06:37:21;;;;;;;4.07;0.93;;;26.00;72.30;;;;;;5070335;28;20719;-78
2022/01/13 06:39:48;;;;;;;4.63;1.40;;;25.70;73.30;;;;;;5069592;28;20169;-78
2022/01/13 06:42:17;;;;;;;3.57;1.13;;;25.30;73.50;;;;;;5068946;28;20286;-77
2022/01/13 06:44:45;;;;;;;7.00;1.20;;;25.10;74.20;;;;;;5071979;28;20179;-78
2022/01/13 06:47:13;;;;;;;6.10;1.20;;;25.10;74.90;;;;;;5070911;28;20183;-79
2022/01/13 06:49:40;;;;;;;3.87;1.13;;;25.20;74.50;;;;;;5072954;28;20184;-79
2022/01/13 06:52:08;;;;;;;5.57;1.20;;;25.40;73.50;;;;;;5073146;28;20183;-79
2022/01/13 06:54:36;;;;;;;6.20;1.13;;;25.50;73.40;;;;;;5071988;28;20186;-78
2022/01/13 06:57:03;;;;;;;4.40;1.07;;;25.80;73.30;;;;;;5070570;28;20223;-76
2022/01/13 06:59:31;;;;;;;5.67;1.30;;;25.60;73.20;;;;;;5071925;28;20203;-78
2022/01/13 07:02:02;;;;;;;7.73;1.20;;;25.60;72.90;;;;;;5070265;28;20199;-77
2022/01/13 07:04:30;;;;;;;3.47;1.17;;;25.60;73.20;;;;;;5070183;28;20187;-76
2022/01/13 07:06:57;;;;;;;7.17;1.83;;;25.30;73.50;;;;;;5072424;28;20171;-73
2022/01/13 07:09:25;;;;;;;5.27;1.30;;;25.10;74.20;;;;;;5070340;28;20186;-76
2022/01/13 07:11:52;;;;;;;3.53;1.20;;;25.10;73.70;;;;;;5094315;28;20190;-77
2022/01/13 07:14:20;;;;;;;5.43;1.07;;;25.20;75.00;;;;;;5071333;28;20222;-76
2022/01/13 07:16:48;;;;;;;4.93;0.90;;;25.20;73.90;;;;;;5073301;28;20215;-78
2022/01/13 07:19:16;;;;;;;5.27;1.23;;;24.80;72.50;;;;;;5071389;28;20516;-77
2022/01/13 07:21:45;;;;;;;3.67;1.33;;;24.70;72.70;;;;;;5073273;28;20192;-78
2022/01/13 07:24:13;;;;;;;6.53;1.40;;;24.60;72.70;;;;;;5072642;28;21531;-76
2022/01/13 07:26:40;;;;;;;9.67;1.57;;;24.60;73.60;;;;;;5071411;28;20313;-79
2022/01/13 07:29:09;;;;;;;3.50;0.80;;;24.60;73.00;;;;;;5072470;28;20179;-77
2022/01/13 07:31:38;;;;;;;5.03;1.00;;;24.60;74.30;;;;;;5071694;28;20191;-77
2022/01/13 07:34:06;;;;;;;3.70;0.90;;;24.60;73.70;;;;;;5070502;28;20274;-76
2022/01/13 07:36:38;;;;;;;7.97;1.30;;;24.60;74.10;;;;;;5070549;28;20204;-76
2022/01/13 07:39:07;;;;;;;5.90;1.53;;;24.70;74.40;;;;;;5073847;28;20231;-78
2022/01/13 07:41:37;;;;;;;4.70;1.20;;;24.80;74.00;;;;;;5075004;28;20175;-75
2022/01/13 07:44:06;;;;;;;3.97;1.57;;;24.90;73.60;;;;;;5076768;28;20266;-77
2022/01/13 07:46:33;;;;;;;2.40;1.10;;;24.90;74.50;;;;;;5088057;28;20206;-78
2022/01/13 07:49:01;;;;;;;4.50;1.33;;;24.70;73.50;;;;;;5077489;28;20187;-78
2022/01/13 07:51:31;;;;;;;3.67;1.20;;;24.40;73.90;;;;;;5071388;28;20194;-78
2022/01/13 07:53:59;;;;;;;2.87;1.00;;;24.40;74.10;;;;;;5073758;28;20645;-77
2022/01/13 07:56:28;;;;;;;4.83;1.30;;;24.40;74.60;;;;;;5072092;28;20192;-77
2022/01/13 07:58:56;;;;;;;2.67;1.07;;;24.60;74.20;;;;;;5073346;28;20718;-77
2022/01/13 08:01:24;;;;;;;7.33;1.30;;;24.50;75.00;;;;;;5073335;28;20225;-76
2022/01/13 08:03:51;;;;;;;3.23;1.20;;;24.60;74.90;;;;;;5072377;28;20175;-77
2022/01/13 08:06:19;;;;;;;7.50;1.90;;;24.50;75.40;;;;;;5073643;28;20172;-76
2022/01/13 08:08:46;;;;;;;3.43;1.23;;;24.40;75.80;;;;;;5073602;28;20262;-77
2022/01/13 08:11:14;;;;;;;4.27;1.40;;;24.30;76.00;;;;;;5073506;28;20171;-76
2022/01/13 08:13:41;;;;;;;4.47;1.07;;;24.20;76.50;;;;;;5074721;28;20171;-76
2022/01/13 08:16:10;;;;;;;8.03;1.60;;;24.10;76.90;;;;;;5072503;28;20273;-77
2022/01/13 08:21:25;;;;;;;3.67;1.40;;;24.00;77.50;;;;;;5069972;28;20270;-78
2022/01/13 08:23:52;;;;;;;6.63;1.43;;;23.90;78.00;;;;;;5072630;28;20186;-75
2022/01/13 08:26:20;;;;;;;7.60;1.70;;;23.80;78.50;;;;;;5071413;28;20709;-76
2022/01/13 08:28:48;;;;;;;7.63;1.73;;;23.70;79.10;;;;;;5070762;28;20229;-74
2022/01/13 08:31:15;;;;;;;9.63;1.77;;;23.70;79.20;;;;;;5066540;28;20183;-75
2022/01/13 08:33:43;;;;;;;7.00;1.27;;;23.60;79.70;;;;;;5070116;28;20190;-75
2022/01/13 08:36:10;;;;;;;7.07;1.60;;;23.50;80.10;;;;;;5072557;28;20195;-77
2022/01/13 08:38:38;;;;;;;8.77;1.43;;;23.30;80.20;;;;;;5072456;28;20582;-76
2022/01/13 08:41:05;;;;;;;7.73;1.73;;;23.30;80.70;;;;;;5071234;28;20179;-79
2022/01/13 08:43:34;;;;;;;9.07;1.90;;;23.30;80.50;;;;;;5072645;28;20171;-77
2022/01/13 08:46:03;;;;;;;6.67;1.60;;;23.20;80.90;;;;;;5070122;28;20175;-76
2022/01/13 08:48:33;;;;;;;8.27;1.73;;;23.10;80.80;;;;;;5071301;28;20207;-75
2022/01/13 08:51:00;;;;;;;10.37;1.43;;;23.00;81.20;;;;;;5069259;28;20308;-76
2022/01/13 08:53:28;;;;;;;5.20;1.30;;;23.00;80.80;;;;;;5070716;28;20194;-75
2022/01/13 08:55:58;;;;;;;10.60;1.67;;;23.00;80.90;;;;;;5070833;28;20203;-74
2022/01/13 08:58:26;;;;;;;9.57;1.73;;;22.90;81.10;;;;;;5070974;28;20202;-76
2022/01/13 09:00:56;;;;;;;8.10;1.57;;;22.90;81.80;;;;;;5071340;28;20203;-77
2022/01/13 09:03:24;;;;;;;6.00;1.57;;;22.80;82.50;;;;;;5073524;28;20236;-76
2022/01/13 09:05:51;;;;;;;9.30;1.60;;;22.80;82.70;;;;;;5073652;28;20171;-75
2022/01/13 09:08:19;;;;;;;6.63;1.67;;;22.80;83.20;;;;;;5072351;28;20300;-77
2022/01/13 09:10:46;;;;;;;9.60;1.93;;;22.80;83.40;;;;;;5074579;28;20630;-76
2022/01/13 09:13:16;;;;;;;11.03;2.27;;;22.80;83.70;;;;;;5072509;28;20637;-77
2022/01/13 09:15:52;;;;;;;9.80;1.90;;;22.70;83.90;;;;;;5072097;28;20215;-75
2022/01/13 09:18:32;;;;;;;7.67;1.60;;;22.70;84.10;;;;;;5074231;28;20270;-75
2022/01/13 09:21:01;;;;;;;8.10;1.90;;;22.60;84.40;;;;;;5087385;28;20190;-77
2022/01/13 09:23:28;;;;;;;8.63;1.93;;;22.60;84.50;;;;;;5071145;28;20171;-75
2022/01/13 09:25:58;;;;;;;8.07;1.63;;;22.60;84.90;;;;;;5071661;28;20266;-76
2022/01/13 09:28:25;;;;;;;10.23;2.13;;;22.50;85.00;;;;;;5071494;28;20206;-75
2022/01/13 09:30:52;;;;;;;6.60;1.50;;;22.50;85.40;;;;;;5069427;28;20183;-77
2022/01/13 09:33:21;;;;;;;8.07;1.93;;;22.50;85.40;;;;;;5069354;28;20237;-75
2022/01/13 09:35:49;;;;;;;8.90;1.70;;;22.40;85.60;;;;;;5069818;28;20213;-75
2022/01/13 09:38:16;;;;;;;9.40;1.90;;;22.40;85.70;;;;;;5068968;28;20226;-75
2022/01/13 09:40:52;;;;;;;8.40;1.50;;;22.30;85.80;;;;;;5071786;28;20195;-76
2022/01/13 09:43:26;;;;;;;5.47;1.87;;;22.40;85.80;;;;;;5071810;28;20179;-76
2022/01/13 09:45:55;;;;;;;5.90;1.67;;;22.40;85.90;;;;;;5068878;28;20185;-79
2022/01/13 09:48:22;;;;;;;10.73;4.70;;;22.50;86.00;;;;;;5071260;28;20183;-78
2022/01/13 09:50:50;;;;;;;7.43;2.40;;;22.50;85.90;;;;;;5071616;28;20611;-78
2022/01/13 09:53:18;;;;;;;9.20;2.30;;;22.50;86.10;;;;;;5070031;28;20203;-77
2022/01/13 09:55:46;;;;;;;7.40;1.93;;;22.50;85.90;;;;;;5070632;28;20281;-77
2022/01/13 09:58:14;;;;;;;7.80;2.67;;;22.50;85.60;;;;;;5066822;28;20202;-77
2022/01/13 10:00:43;;;;;;;5.97;1.50;;;22.50;85.60;;;;;;5070002;28;20225;-78
2022/01/13 10:03:13;;;;;;;4.87;1.43;;;22.50;85.80;;;;;;5069010;28;20585;-78
2022/01/13 10:05:58;;;;;;;11.60;2.47;;;22.50;86.00;;;;;;5071344;28;20172;-78
2022/01/13 10:08:49;;;;;;;8.57;1.83;;;22.50;85.80;;;;;;5069533;28;20266;-78
2022/01/13 10:11:45;;;;;;;8.80;2.33;;;22.40;86.00;;;;;;5069335;28;20250;-77
2022/01/13 10:16:55;;;;;;;10.90;1.73;;;22.30;86.30;;;;;;5070276;28;20203;-78
2022/01/13 10:19:38;;;;;;;8.40;1.80;;;22.30;86.50;;;;;;5071084;28;20689;-75
2022/01/13 10:22:11;;;;;;;7.97;4.93;;;22.30;86.70;;;;;;5070768;28;20266;-76
2022/01/13 10:24:44;;;;;;;17.50;7.37;;;22.30;86.80;;;;;;5071085;28;20262;-75
2022/01/13 10:27:29;;;;;;;11.43;5.63;;;22.30;86.90;;;;;;5070947;28;20238;-77
2022/01/13 10:30:02;;;;;;;7.33;1.87;;;22.20;86.90;;;;;;5067998;28;20203;-77
2022/01/13 10:32:38;;;;;;;10.13;2.00;;;22.30;87.00;;;;;;5075236;28;20186;-76
2022/01/13 10:35:14;;;;;;;8.93;1.67;;;22.30;87.10;;;;;;5075222;28;20163;-77
2022/01/13 10:37:56;;;;;;;7.50;1.70;;;22.30;87.40;;;;;;5073940;28;20295;-77
2022/01/13 10:40:33;;;;;;;10.67;2.00;;;22.30;87.60;;;;;;5075508;28;20172;-77
2022/01/13 10:43:06;;;;;;;8.80;1.87;;;22.30;88.00;;;;;;5073610;28;20251;-77
2022/01/13 10:45:35;;;;;;;7.83;2.20;;;22.30;88.40;;;;;;5075509;28;20215;-79
2022/01/13 10:48:10;;;;;;;8.13;1.90;;;22.30;88.60;;;;;;5076110;28;20191;-77
2022/01/13 10:50:39;;;;;;;12.20;1.73;;;22.30;88.90;;;;;;5076369;28;20598;-77
2022/01/13 10:53:12;;;;;;;9.57;1.70;;;22.30;88.90;;;;;;5086397;28;20191;-77
2022/01/13 10:55:55;;;;;;;7.63;1.77;;;22.30;89.00;;;;;;5082024;28;20183;-78
2022/01/13 10:58:28;;;;;;;7.37;1.60;;;22.30;89.10;;;;;;5075720;28;20282;-77
2022/01/13 11:00:57;;;;;;;10.00;1.63;;;22.30;89.00;;;;;;5073388;28;20180;-77
2022/01/13 11:03:27;;;;;;;7.60;1.97;;;22.20;89.10;;;;;;5075735;28;20186;-77
2022/01/13 11:06:06;;;;;;;11.40;1.73;;;22.20;89.10;;;;;;5098927;28;20176;-78
2022/01/13 11:08:44;;;;;;;5.43;1.57;;;22.20;89.00;;;;;;5074069;28;20194;-78
2022/01/13 11:11:26;;;;;;;9.33;1.97;;;22.10;89.00;;;;;;5073847;28;20187;-78
2022/01/13 11:14:14;;;;;;;9.87;1.57;;;22.10;89.40;;;;;;5071802;28;20186;-78
2022/01/13 11:16:42;;;;;;;10.50;1.83;;;22.10;89.30;;;;;;5073421;28;20211;-76
2022/01/13 11:19:12;;;;;;;9.97;1.73;;;22.10;89.50;;;;;;5074045;28;20590;-77
2022/01/13 11:21:40;;;;;;;11.40;2.00;;;22.00;89.80;;;;;;5073265;28;20183;-78
2022/01/13 11:24:08;;;;;;;12.33;2.10;;;22.00;90.10;;;;;;5073731;28;20172;-79
2022/01/13 11:26:36;;;;;;;12.63;2.23;;;22.00;89.90;;;;;;5068390;28;20190;-79
2022/01/13 11:29:06;;;;;;;12.13;2.60;;;21.90;89.80;;;;;;5072572;28;20238;-77
2022/01/13 11:31:34;;;;;;;9.47;2.33;;;21.80;90.10;;;;;;5066589;28;20557;-79
2022/01/13 11:34:01;;;;;;;8.90;1.77;;;21.80;90.40;;;;;;5072376;28;20176;-78
2022/01/13 11:36:29;;;;;;;12.70;2.53;;;21.70;90.50;;;;;;5073213;28;20558;-76
2022/01/13 11:39:00;;;;;;;18.13;2.97;;;21.80;90.40;;;;;;5072480;28;20688;-77
2022/01/13 11:41:28;;;;;;;20.13;15.03;;;21.80;90.60;;;;;;5073080;28;20183;-78
2022/01/13 11:44:20;;;;;;;16.73;4.10;;;21.70;90.60;;;;;;5070601;28;20186;-78
2022/01/13 11:46:50;;;;;;;10.60;2.50;;;21.80;90.80;;;;;;5072720;28;20189;-78
2022/01/13 11:49:22;;;;;;;9.23;1.70;;;21.80;90.60;;;;;;5073517;28;20274;-79
2022/01/13 11:52:10;;;;;;;8.53;1.70;;;21.80;90.70;;;;;;5072749;28;20179;-77
2022/01/13 11:54:39;;;;;;;8.67;2.20;;;21.80;90.30;;;;;;5071631;28;20191;-77
2022/01/13 11:57:29;;;;;;;8.63;2.07;;;21.80;90.40;;;;;;5072879;28;20219;-78
2022/01/13 11:59:56;;;;;;;8.97;2.17;;;21.80;90.30;;;;;;5072729;28;20179;-79
2022/01/13 12:02:39;;;;;;;10.40;1.50;;;21.80;90.30;;;;;;5072909;28;20187;-78
2022/01/13 12:05:16;;;;;;;5.87;1.70;;;21.80;90.30;;;;;;5067993;28;20666;-78
2022/01/13 12:07:48;;;;;;;8.40;1.80;;;21.80;90.20;;;;;;5071645;28;20547;-78
2022/01/13 12:10:37;;;;;;;7.07;1.40;;;21.70;90.20;;;;;;5073656;28;20179;-77
2022/01/13 12:13:29;;;;;;;6.63;1.67;;;21.60;90.40;;;;;;5070655;28;20171;-77
2022/01/13 12:15:57;;;;;;;11.87;2.37;;;21.60;90.70;;;;;;5073908;28;20671;-78
2022/01/13 12:18:53;;;;;;;10.63;2.40;;;21.50;91.00;;;;;;5071050;28;20665;-78
2022/01/13 12:21:28;;;;;;;9.43;2.10;;;21.50;90.80;;;;;;5070571;28;20191;-77
2022/01/13 12:23:56;;;;;;;7.23;2.23;;;21.40;90.80;;;;;;5073100;28;20179;-77
2022/01/13 12:26:46;;;;;;;9.00;1.53;;;21.40;90.90;;;;;;5074996;28;20179;-77
2022/01/13 12:29:30;;;;;;;6.87;1.67;;;21.40;91.10;;;;;;5074133;28;20175;-77
2022/01/13 12:32:01;;;;;;;9.20;1.93;;;21.40;91.00;;;;;;5067226;28;20187;-77
2022/01/13 12:34:35;;;;;;;6.27;1.90;;;21.40;91.20;;;;;;5071799;28;20542;-76
2022/01/13 12:37:15;;;;;;;8.70;1.97;;;21.40;91.20;;;;;;5072296;28;20218;-76
2022/01/13 12:39:44;;;;;;;10.10;2.17;;;21.40;91.40;;;;;;5072365;28;20540;-77
2022/01/13 12:42:22;;;;;;;9.47;2.10;;;21.40;91.50;;;;;;5068235;28;20210;-77
2022/01/13 12:47:36;;;;;;;10.87;2.37;;;21.50;91.50;;;;;;5072761;28;20236;-77
2022/01/13 12:50:17;;;;;;;7.03;1.70;;;21.60;91.40;;;;;;5071786;28;20183;-78
2022/01/13 12:52:45;;;;;;;10.40;2.63;;;21.60;91.30;;;;;;5071657;28;21722;-77
2022/01/13 12:55:13;;;;;;;10.00;1.93;;;21.50;91.30;;;;;;5072091;28;20178;-79
2022/01/13 12:57:52;;;;;;;8.23;1.80;;;21.60;91.40;;;;;;5072156;28;20692;-78
2022/01/13 13:00:23;;;;;;;15.37;1.90;;;21.60;91.50;;;;;;5068094;28;20207;-77
2022/01/13 13:02:55;;;;;;;18.53;3.40;;;21.60;91.60;;;;;;5071955;28;20706;-77
2022/01/13 13:05:53;;;;;;;8.53;2.40;;;21.60;91.50;;;;;;5072329;28;20172;-77
2022/01/13 13:08:23;;;;;;;6.37;2.47;;;21.60;91.60;;;;;;5061846;28;20682;-77
2022/01/13 13:11:01;;;;;;;9.30;2.00;;;21.60;91.60;;;;;;5071559;28;20546;-77
2022/01/13 13:13:32;;;;;;;8.90;2.30;;;21.70;91.50;;;;;;5071428;28;20261;-77
2022/01/13 13:16:08;;;;;;;9.40;2.27;;;21.70;91.40;;;;;;5070710;28;20673;-78
2022/01/13 13:18:36;;;;;;;10.73;2.77;;;21.70;91.60;;;;;;5070424;28;20669;-78
2022/01/13 13:21:07;;;;;;;11.83;2.23;;;21.70;91.60;;;;;;5071012;28;20254;-77
2022/01/13 13:23:37;;;;;;;8.63;2.23;;;21.80;91.60;;;;;;5071378;28;20175;-77
2022/01/13 13:26:12;;;;;;;9.93;1.97;;;21.80;91.40;;;;;;5069728;28;20171;-77
2022/01/13 13:28:44;;;;;;;9.70;2.77;;;21.80;91.40;;;;;;5064582;28;20269;-77
2022/01/13 13:31:20;;;;;;;9.07;2.10;;;21.80;91.50;;;;;;5067145;28;20588;-77
2022/01/13 13:34:02;;;;;;;5.33;1.77;;;21.80;91.50;;;;;;5070439;28;20183;-77
2022/01/13 13:36:34;;;;;;;11.63;2.23;;;21.80;91.60;;;;;;5069260;28;20248;-77
2022/01/13 13:39:03;;;;;;;8.47;2.10;;;21.80;91.40;;;;;;5071104;28;20222;-77